Time;durP1;ratioP1;P1;durP2;ratioP2;P2;SDS_P1;SDS_P2;PMS_P1;PMS_P2;Temp;Humidity;BMP_temperature;BMP_pressure;BME280_temperature;BME280_humidity;BME280_pressure;Samples;Min_cycle;Max_cycle;Signal;HPM_P1;HPM_P2
2022/10/07 00:01:57;;;;;;;12.18;9.03;;;;;;;15.47;77.15;100847.25;1806142;78;21525;-77
2022/10/07 00:04:23;;;;;;;9.65;7.92;;;;;;;15.42;77.36;100850.98;1786065;78;21069;-76
2022/10/07 00:06:51;;;;;;;10.05;8.65;;;;;;;15.36;77.75;100854.35;1782714;78;21517;-74
2022/10/07 00:09:17;;;;;;;8.78;7.87;;;;;;;15.29;77.98;100853.67;1781929;80;21033;-77
2022/10/07 00:11:44;;;;;;;10.60;6.97;;;;;;;15.22;78.24;100856.73;1758132;79;21014;-77
2022/10/07 00:14:12;;;;;;;7.87;7.08;;;;;;;15.21;78.30;100851.03;1745576;80;21546;-74
2022/10/07 00:16:40;;;;;;;7.92;6.90;;;;;;;15.25;78.20;100847.00;1751110;80;21098;-78
2022/10/07 00:19:10;;;;;;;8.53;6.97;;;;;;;15.25;78.49;100855.54;1762097;80;21150;-78
2022/10/07 00:21:38;;;;;;;11.38;7.15;;;;;;;15.20;78.80;100858.74;1768879;80;21003;-77
2022/10/07 00:24:06;;;;;;;8.50;7.47;;;;;;;15.14;78.92;100861.59;1763370;80;21044;-74
2022/10/07 00:26:34;;;;;;;7.20;6.50;;;;;;;15.11;79.07;100859.76;1775859;80;21061;-78
2022/10/07 00:29:03;;;;;;;9.38;6.67;;;;;;;15.12;79.11;100860.94;1779958;79;21114;-77
2022/10/07 00:31:32;;;;;;;9.00;6.83;;;;;;;15.19;79.11;100859.73;1769415;79;21275;-76
2022/10/07 00:33:58;;;;;;;8.88;6.83;;;;;;;15.13;79.29;100865.27;1758936;80;21205;-79
2022/10/07 00:36:29;;;;;;;9.93;7.03;;;;;;;15.08;79.46;100869.45;1782341;79;21081;-76
2022/10/07 00:38:58;;;;;;;8.85;7.08;;;;;;;15.02;79.66;100864.28;1784150;80;21069;-75
2022/10/07 00:41:32;;;;;;;8.90;7.30;;;;;;;14.96;79.87;100869.48;1782875;79;21014;-78
2022/10/07 00:44:00;;;;;;;11.75;8.50;;;;;;;14.97;79.95;100869.80;1788035;79;21222;-76
2022/10/07 00:46:36;;;;;;;16.62;14.73;;;;;;;15.03;79.90;100872.65;1775705;79;20993;-77
2022/10/07 00:49:07;;;;;;;19.45;17.37;;;;;;;14.98;80.07;100875.50;1784635;79;21055;-78
2022/10/07 00:51:34;;;;;;;16.25;13.78;;;;;;;14.88;80.38;100880.52;1782020;79;21544;-77
2022/10/07 00:54:06;;;;;;;21.62;15.13;;;;;;;14.82;80.76;100884.38;1781186;78;20943;-75
2022/10/07 00:56:33;;;;;;;14.78;13.25;;;;;;;14.73;81.01;100884.36;1761255;79;21122;-78
2022/10/07 00:59:00;;;;;;;12.53;10.18;;;;;;;14.77;80.98;100889.39;1782862;79;20934;-76
2022/10/07 01:01:30;;;;;;;14.35;12.23;;;;;;;14.84;81.12;100886.39;1758600;80;21065;-77
2022/10/07 01:03:56;;;;;;;10.43;9.33;;;;;;;14.77;81.31;100888.05;1777786;79;22043;-77
2022/10/07 01:06:24;;;;;;;9.35;8.45;;;;;;;14.71;81.61;100893.56;1768264;79;20921;-78
2022/10/07 01:08:52;;;;;;;10.18;9.10;;;;;;;14.64;81.86;100896.09;1767355;80;21101;-78
2022/10/07 01:11:43;;;;;;;13.05;10.23;;;;;;;14.65;81.81;100896.41;1793002;78;21523;-75
2022/10/07 01:14:34;;;;;;;13.18;9.60;;;;;;;14.72;81.79;100896.08;1784284;79;21017;-76
2022/10/07 01:17:08;;;;;;;13.25;9.83;;;;;;;14.70;81.90;100897.26;1780867;78;21029;-73
2022/10/07 01:20:08;;;;;;;11.22;8.15;;;;;;;14.63;82.18;100898.92;1775636;79;21580;-76
2022/10/07 01:23:00;;;;;;;11.90;8.68;;;;;;;14.57;82.38;100904.42;1767867;79;21161;-76
2022/10/07 01:25:44;;;;;;;7.67;6.87;;;;;;;14.49;82.65;100904.39;1784903;78;21030;-77
2022/10/07 01:28:16;;;;;;;11.30;7.37;;;;;;;14.48;82.77;100903.53;1764783;79;21542;-75
2022/10/07 01:30:47;;;;;;;11.45;7.83;;;;;;;14.53;82.80;100905.73;1786831;80;21005;-76
2022/10/07 01:33:19;;;;;;;8.93;7.95;;;;;;;14.48;83.09;100916.08;1773994;80;21006;-76
2022/10/07 01:35:48;;;;;;;9.63;7.00;;;;;;;14.42;83.35;100910.89;1776797;80;21194;-76
2022/10/07 01:38:18;;;;;;;8.83;7.83;;;;;;;14.40;83.55;100924.09;1767338;79;21548;-74
2022/10/07 01:40:57;;;;;;;7.40;6.60;;;;;;;14.42;83.75;100917.57;1755743;80;21004;-77
2022/10/07 01:43:24;;;;;;;9.00;6.70;;;;;;;14.47;83.68;100913.91;1747979;80;21011;-75
2022/10/07 01:45:51;;;;;;;8.15;6.62;;;;;;;14.45;83.96;100917.25;1739225;79;21094;-75
2022/10/07 01:48:17;;;;;;;8.75;6.47;;;;;;;14.42;84.21;100918.08;1770820;80;21502;-75
2022/10/07 01:50:44;;;;;;;7.40;6.70;;;;;;;14.40;84.33;100915.56;1775982;79;21557;-75
2022/10/07 01:53:51;;;;;;;7.67;6.17;;;;;;;14.45;84.26;100920.44;1774260;79;20991;-76
2022/10/07 01:56:46;;;;;;;7.72;6.92;;;;;;;14.55;84.10;100922.45;1760701;80;20997;-77
2022/10/07 01:59:49;;;;;;;8.90;6.50;;;;;;;14.54;84.07;100927.44;1773802;80;20903;-80
2022/10/07 02:02:55;;;;;;;9.33;7.62;;;;;;;14.53;84.13;100933.30;1771516;80;21090;-77
2022/10/07 02:05:39;;;;;;;7.95;6.62;;;;;;;14.52;84.15;100936.96;1763576;79;21037;-76
2022/10/07 02:08:32;;;;;;;8.73;6.75;;;;;;;14.58;83.87;100942.19;1754888;79;21081;-75
2022/10/07 02:11:18;;;;;;;10.05;7.92;;;;;;;14.62;83.67;100937.34;1771391;80;21073;-75
2022/10/07 02:14:10;;;;;;;9.58;7.37;;;;;;;14.57;83.81;100946.39;1777512;80;21042;-75
2022/10/07 02:16:49;;;;;;;9.85;7.25;;;;;;;14.52;83.87;100954.34;1758281;79;21551;-77
2022/10/07 02:19:20;;;;;;;6.12;5.53;;;;;;;14.47;83.84;100955.35;1788462;79;21073;-75
2022/10/07 02:21:48;;;;;;;8.43;6.45;;;;;;;14.47;83.79;100961.21;1769703;79;21053;-74
2022/10/07 02:24:15;;;;;;;7.00;5.70;;;;;;;14.49;83.53;100958.70;1789454;79;21050;-75
2022/10/07 02:26:43;;;;;;;8.83;6.12;;;;;;;14.46;83.48;100959.52;1778339;79;21022;-75
2022/10/07 02:29:11;;;;;;;6.22;5.60;;;;;;;14.39;83.15;100963.84;1797462;79;21886;-72
2022/10/07 02:31:40;;;;;;;8.85;5.28;;;;;;;14.32;83.03;100971.18;1767247;79;20981;-74
2022/10/07 02:34:10;;;;;;;6.67;5.15;;;;;;;14.34;82.73;100974.53;1767665;79;21492;-76
2022/10/07 02:36:43;;;;;;;9.03;5.15;;;;;;;14.42;82.42;100971.55;1773949;79;21030;-75
2022/10/07 02:39:10;;;;;;;9.10;5.53;;;;;;;14.39;82.29;100979.87;1774097;80;21064;-74
2022/10/07 02:41:45;;;;;;;7.08;5.90;;;;;;;14.31;82.20;100978.02;1777488;80;21619;-77
2022/10/07 02:44:30;;;;;;;9.33;5.65;;;;;;;14.27;82.16;100986.86;1787470;79;21024;-76
2022/10/07 02:47:27;;;;;;;6.37;4.65;;;;;;;14.22;82.07;100987.03;1771693;78;21037;-73
2022/10/07 02:49:53;;;;;;;8.25;5.17;;;;;;;14.26;81.87;100991.88;1790663;79;21049;-77
2022/10/07 02:52:20;;;;;;;8.30;5.20;;;;;;;14.26;81.80;100994.55;1750419;79;21599;-76
2022/10/07 02:54:57;;;;;;;6.05;4.83;;;;;;;14.22;81.87;100995.88;1784177;79;21139;-76
2022/10/07 02:57:24;;;;;;;7.97;5.35;;;;;;;14.19;81.82;100996.19;1780537;79;21019;-76
2022/10/07 02:59:50;;;;;;;5.97;5.17;;;;;;;14.14;81.83;100999.86;1763749;79;20998;-76
2022/10/07 03:02:50;;;;;;;8.60;5.05;;;;;;;14.13;81.80;101000.84;1777763;79;21106;-77
2022/10/07 03:05:19;;;;;;;7.35;5.70;;;;;;;14.19;81.64;101008.72;1785303;78;21239;-77
2022/10/07 03:07:50;;;;;;;10.13;5.45;;;;;;;14.11;81.85;101006.85;1743101;81;21090;-75
2022/10/07 03:10:16;;;;;;;8.48;5.67;;;;;;;14.00;81.99;101007.13;1770465;78;21086;-74
2022/10/07 03:12:43;;;;;;;5.50;4.65;;;;;;;13.94;82.19;101020.11;1740176;81;21108;-76
2022/10/07 03:15:12;;;;;;;6.53;5.33;;;;;;;13.92;82.28;101019.44;1763714;81;21048;-76
2022/10/07 03:17:39;;;;;;;8.68;5.85;;;;;;;13.98;82.22;101019.30;1780985;79;21096;-76
2022/10/07 03:20:08;;;;;;;7.78;5.28;;;;;;;13.93;82.35;101023.80;1799454;79;21870;-77
2022/10/07 03:22:35;;;;;;;7.65;5.53;;;;;;;13.84;82.47;101025.25;1783300;79;21651;-77
2022/10/07 03:25:05;;;;;;;8.50;5.05;;;;;;;13.74;82.58;101021.35;1758372;79;21051;-75
2022/10/07 03:27:33;;;;;;;8.48;4.90;;;;;;;13.62;82.59;101024.78;1798093;78;21041;-76
2022/10/07 03:30:00;;;;;;;9.00;4.22;;;;;;;13.59;82.48;101029.09;1822812;78;21081;-77
2022/10/07 03:32:27;;;;;;;7.80;4.30;;;;;;;13.62;82.16;101028.79;1769672;78;21496;-76
2022/10/07 03:34:54;;;;;;;11.18;4.90;;;;;;;13.57;81.98;101033.25;1823864;78;20982;-75
2022/10/07 03:37:22;;;;;;;7.33;4.65;;;;;;;13.50;81.87;101033.55;1823740;78;21021;-76
2022/10/07 03:39:50;;;;;;;7.40;4.45;;;;;;;13.44;81.63;101031.48;1798694;78;21065;-75
2022/10/07 03:42:16;;;;;;;4.95;3.95;;;;;;;13.37;81.35;101033.94;1797568;78;21033;-76
2022/10/07 03:44:44;;;;;;;7.30;4.35;;;;;;;13.34;81.11;101032.91;1828623;78;21240;-74
2022/10/07 03:47:11;;;;;;;5.90;4.62;;;;;;;13.37;80.83;101028.61;1823609;78;21033;-76
2022/10/07 03:49:38;;;;;;;7.87;5.20;;;;;;;13.31;80.67;101031.90;1783496;79;21008;-76
2022/10/07 03:52:05;;;;;;;9.28;4.85;;;;;;;13.23;80.64;101032.28;1761594;80;20983;-76
2022/10/07 03:54:32;;;;;;;6.10;4.30;;;;;;;13.13;80.44;101029.22;1776341;79;21261;-77
2022/10/07 03:56:59;;;;;;;6.25;4.92;;;;;;;13.08;80.30;101038.67;1774037;80;21115;-78
2022/10/07 03:59:26;;;;;;;9.45;6.75;;;;;;;13.06;80.19;101042.82;1780210;80;21077;-76
2022/10/07 04:01:53;;;;;;;15.70;9.63;;;;;;;13.10;79.90;101046.86;1774067;79;21048;-77
2022/10/07 04:04:19;;;;;;;12.82;9.05;;;;;;;13.04;79.73;101044.80;1822796;78;20993;-76
2022/10/07 04:06:46;;;;;;;11.43;7.72;;;;;;;12.95;79.78;101051.05;1792638;79;21103;-75
2022/10/07 04:09:15;;;;;;;14.20;8.65;;;;;;;12.88;79.80;101049.97;1757379;80;21016;-77
2022/10/07 04:11:43;;;;;;;12.03;5.65;;;;;;;12.79;79.83;101047.22;1796577;79;21016;-77
2022/10/07 04:14:10;;;;;;;9.15;7.37;;;;;;;12.77;79.81;101053.20;1803292;78;21041;-78
2022/10/07 04:16:38;;;;;;;13.45;8.40;;;;;;;12.84;79.59;101052.59;1776952;79;21022;-77
2022/10/07 04:19:06;;;;;;;14.23;10.00;;;;;;;12.79;79.64;101060.55;1782457;79;21096;-78
2022/10/07 04:21:33;;;;;;;15.30;10.70;;;;;;;12.73;79.70;101059.83;1771413;80;21116;-76
2022/10/07 04:23:59;;;;;;;14.38;9.95;;;;;;;12.65;79.64;101056.22;1774137;80;21026;-77
2022/10/07 04:26:27;;;;;;;10.38;5.85;;;;;;;12.63;79.67;101061.69;1760761;80;21073;-76
2022/10/07 04:28:54;;;;;;;8.63;5.87;;;;;;;12.61;79.62;101064.17;1799607;77;20992;-79
2022/10/07 04:31:21;;;;;;;8.10;6.62;;;;;;;12.66;79.49;101061.41;1776590;80;21073;-78
2022/10/07 04:33:50;;;;;;;12.28;6.28;;;;;;;12.64;79.57;101064.72;1762123;80;21041;-78
2022/10/07 04:36:19;;;;;;;9.23;6.45;;;;;;;12.60;79.69;101060.67;1762554;80;21045;-78
2022/10/07 04:38:50;;;;;;;10.65;6.05;;;;;;;12.58;79.71;101063.98;1787873;80;21668;-77
2022/10/07 04:41:18;;;;;;;8.30;5.00;;;;;;;12.52;79.72;101068.58;1781460;80;21077;-74
2022/10/07 04:43:50;;;;;;;9.40;4.83;;;;;;;12.52;79.59;101069.41;1767810;80;21554;-76
2022/10/07 04:46:18;;;;;;;10.28;4.75;;;;;;;12.61;79.30;101070.84;1780068;80;21138;-77
2022/10/07 04:48:46;;;;;;;11.53;4.15;;;;;;;12.59;79.23;101073.64;1784435;79;21040;-78
2022/10/07 04:51:14;;;;;;;10.50;4.30;;;;;;;12.57;79.15;101069.82;1773796;79;20997;-77
2022/10/07 04:53:42;;;;;;;16.48;7.08;;;;;;;12.56;79.12;101069.96;1783484;80;20986;-79
2022/10/07 04:56:10;;;;;;;9.68;6.75;;;;;;;12.56;78.73;101081.95;1787397;80;21572;-77
2022/10/07 04:58:36;;;;;;;8.75;4.20;;;;;;;12.55;78.54;101084.27;1782020;79;21084;-79
2022/10/07 05:01:07;;;;;;;8.25;4.20;;;;;;;12.59;78.23;101082.97;1800151;78;21017;-78
2022/10/07 05:03:37;;;;;;;10.63;3.98;;;;;;;12.69;77.90;101085.59;1811633;78;21040;-78
2022/10/07 05:06:06;;;;;;;6.83;3.47;;;;;;;12.70;77.83;101088.11;1817916;78;21037;-77
2022/10/07 05:08:33;;;;;;;6.37;3.80;;;;;;;12.71;77.72;101095.61;1767224;80;21050;-77
2022/10/07 05:11:01;;;;;;;9.50;3.87;;;;;;;12.71;77.75;101092.94;1787104;80;22143;-78
2022/10/07 05:13:32;;;;;;;6.85;3.70;;;;;;;12.72;77.65;101098.13;1785880;80;21072;-76
2022/10/07 05:16:01;;;;;;;8.38;3.10;;;;;;;12.74;77.51;101094.82;1765953;79;21006;-77
2022/10/07 05:18:29;;;;;;;8.68;4.00;;;;;;;12.81;77.27;101095.08;1777745;79;21029;-77
2022/10/07 05:21:00;;;;;;;8.58;3.92;;;;;;;12.94;77.11;101092.89;1749786;79;21037;-78
2022/10/07 05:23:30;;;;;;;11.22;4.67;;;;;;;13.01;76.97;101092.28;1764418;80;21230;-77
2022/10/07 05:26:03;;;;;;;10.32;4.17;;;;;;;13.06;76.76;101097.52;1779218;79;21076;-76
2022/10/07 05:28:29;;;;;;;8.85;4.12;;;;;;;13.20;76.57;101099.31;1786192;79;21560;-76
2022/10/07 05:31:06;;;;;;;8.15;3.80;;;;;;;13.20;76.57;101099.31;1758811;81;21516;-76
2022/10/07 05:33:34;;;;;;;7.17;3.40;;;;;;;13.26;76.29;101106.70;1761592;80;21073;-79
2022/10/07 05:36:01;;;;;;;8.00;3.52;;;;;;;13.32;76.33;101107.45;1795069;80;21227;-76
2022/10/07 05:38:29;;;;;;;8.18;4.22;;;;;;;13.44;76.27;101115.56;1793287;80;21528;-76
2022/10/07 05:41:48;;;;;;;10.40;4.17;;;;;;;13.71;75.74;101113.79;1851548;76;28017;-79
2022/10/07 05:44:16;;;;;;;9.00;3.22;;;;;;;13.73;75.48;101111.80;1822782;77;20859;-78
2022/10/07 05:46:44;;;;;;;6.67;3.65;;;;;;;13.78;75.20;101121.53;1814497;77;22052;-76
2022/10/07 05:49:11;;;;;;;8.85;4.30;;;;;;;13.83;74.90;101123.25;1817600;77;21875;-80
2022/10/07 05:51:39;;;;;;;8.03;4.17;;;;;;;13.90;74.57;101124.78;1830376;77;20966;-80
2022/10/07 05:54:07;;;;;;;13.10;4.75;;;;;;;13.96;74.02;101130.83;1827261;77;20976;-78
2022/10/07 05:56:36;;;;;;;8.03;3.50;;;;;;;14.00;73.59;101134.03;1845006;77;20972;-77
2022/10/07 05:59:03;;;;;;;9.30;3.72;;;;;;;14.03;73.26;101135.07;1815216;77;21596;-79
2022/10/07 06:01:30;;;;;;;8.43;3.30;;;;;;;14.06;73.17;101139.61;1820658;78;21085;-82
2022/10/07 06:03:58;;;;;;;7.70;3.67;;;;;;;14.15;72.83;101141.31;1820773;77;21064;-82
2022/10/07 06:06:29;;;;;;;8.33;3.45;;;;;;;14.32;72.55;101137.42;1814712;77;21532;-76
2022/10/07 06:13:06;;;;;;;8.85;3.52;;;;;;;14.39;72.28;101140.28;1758034;80;21066;-80
2022/10/07 06:14:14;;;;;;;7.08;3.27;;;;;;;14.45;71.78;101138.34;1777512;78;21080;-77
2022/10/07 06:16:42;;;;;;;7.87;3.02;;;;;;;14.47;71.04;101143.86;1788798;79;21001;-78
2022/10/07 06:19:21;;;;;;;7.87;3.20;;;;;;;14.48;70.91;101144.69;1759543;79;21013;-78
2022/10/07 06:21:37;;;;;;;10.38;3.85;;;;;;;14.49;70.94;101145.87;1731510;79;21041;-77
2022/10/07 06:24:04;;;;;;;7.85;3.62;;;;;;;14.54;70.76;101144.04;1756758;79;21693;-78
2022/10/07 06:26:32;;;;;;;6.17;3.12;;;;;;;14.57;70.47;101156.30;1776858;80;21109;-78
2022/10/07 06:29:00;;;;;;;7.60;2.80;;;;;;;14.59;70.39;101152.97;1767772;80;21511;-79
2022/10/07 06:31:26;;;;;;;8.90;3.85;;;;;;;14.63;70.59;101155.66;1777102;79;22070;-80
2022/10/07 06:33:55;;;;;;;11.57;3.65;;;;;;;14.69;70.64;101153.17;1777075;79;21041;-79
2022/10/07 06:36:22;;;;;;;9.50;3.75;;;;;;;14.75;70.64;101166.41;1769119;78;21229;-79
2022/10/07 06:38:54;;;;;;;11.00;3.70;;;;;;;14.79;70.32;101161.58;1783976;78;21085;-78
2022/10/07 06:41:23;;;;;;;11.15;3.58;;;;;;;14.81;70.17;101159.06;1774648;79;21105;-79
2022/10/07 06:43:56;;;;;;;6.45;3.60;;;;;;;14.86;70.08;101158.60;1768553;80;21076;-79
2022/10/07 06:46:24;;;;;;;8.15;3.33;;;;;;;14.93;69.92;101155.59;1766951;79;21033;-81
2022/10/07 06:48:52;;;;;;;11.50;3.72;;;;;;;14.98;69.75;101151.94;1761638;79;21523;-78
2022/10/07 06:51:20;;;;;;;5.12;3.25;;;;;;;15.03;69.61;101154.16;1772680;79;21050;-79
2022/10/07 06:53:53;;;;;;;12.80;3.50;;;;;;;15.05;69.80;101156.16;1777553;80;21021;-80
2022/10/07 06:56:20;;;;;;;7.15;3.20;;;;;;;15.09;69.48;101160.19;1775779;80;21065;-78
2022/10/07 06:58:48;;;;;;;11.40;4.03;;;;;;;15.11;69.30;101165.70;1767179;80;21082;-77
2022/10/07 07:01:17;;;;;;;7.72;2.90;;;;;;;15.15;69.14;101164.88;1770568;79;21116;-77
2022/10/07 07:03:43;;;;;;;9.78;3.30;;;;;;;15.19;68.83;101162.20;1770873;78;21109;-76
2022/10/07 07:06:10;;;;;;;8.93;3.20;;;;;;;15.26;68.27;101170.41;1773617;79;21102;-76
2022/10/07 07:08:37;;;;;;;6.83;3.10;;;;;;;15.31;67.86;101168.09;1771066;79;20986;-73
2022/10/07 07:13:55;;;;;;;7.08;3.25;;;;;;;15.43;67.10;101164.59;1769025;80;21096;-74
2022/10/07 07:16:27;;;;;;;5.83;3.37;;;;;;;15.50;66.81;101165.61;1764318;79;21041;-75
2022/10/07 07:18:55;;;;;;;6.45;3.62;;;;;;;15.53;66.29;101159.94;1767223;79;21096;-74
2022/10/07 07:21:23;;;;;;;8.50;3.47;;;;;;;15.59;66.00;101163.77;1760985;79;21051;-72
2022/10/07 07:23:50;;;;;;;8.50;3.25;;;;;;;15.61;65.66;101168.48;1755376;79;21550;-75
2022/10/07 07:26:20;;;;;;;8.08;4.15;;;;;;;15.63;65.87;101169.98;1764991;79;21609;-74
2022/10/07 07:29:00;;;;;;;8.60;3.62;;;;;;;15.67;65.70;101167.30;1768312;79;21723;-74
2022/10/07 07:31:30;;;;;;;7.87;4.12;;;;;;;15.74;65.41;101158.11;1773455;80;21237;-74
2022/10/07 07:34:00;;;;;;;6.95;3.58;;;;;;;15.82;64.80;101158.61;1766750;78;21185;-73
2022/10/07 07:36:29;;;;;;;8.08;3.70;;;;;;;15.86;65.01;101154.11;1737917;78;21081;-76
2022/10/07 07:38:59;;;;;;;8.33;3.60;;;;;;;15.90;64.76;101158.13;1782200;79;21161;-75
2022/10/07 07:41:30;;;;;;;10.75;4.30;;;;;;;15.97;64.09;101158.27;1768413;78;21434;-75
2022/10/07 07:43:59;;;;;;;9.78;3.05;;;;;;;16.03;63.42;101151.40;1768269;79;21001;-76
2022/10/07 07:46:33;;;;;;;8.75;3.20;;;;;;;16.08;62.84;101153.08;1765933;80;21057;-76
2022/10/07 07:49:02;;;;;;;10.20;2.87;;;;;;;16.11;62.82;101144.71;1739293;79;21064;-76
2022/10/07 07:51:31;;;;;;;7.78;2.87;;;;;;;16.21;62.77;101148.03;1768973;79;21893;-75
2022/10/07 07:53:58;;;;;;;8.60;3.45;;;;;;;16.31;62.63;101151.86;1773527;80;21033;-75
2022/10/07 07:56:27;;;;;;;7.33;2.80;;;;;;;16.39;62.24;101149.16;1763999;79;21540;-76
2022/10/07 07:58:55;;;;;;;6.20;2.62;;;;;;;16.50;62.29;101144.77;1760230;79;21609;-81
2022/10/07 08:01:22;;;;;;;7.90;2.80;;;;;;;16.60;61.70;101150.44;1765943;80;21081;-78
2022/10/07 08:03:49;;;;;;;6.05;2.60;;;;;;;16.67;61.30;101148.23;1768278;80;21289;-77
2022/10/07 08:06:19;;;;;;;7.47;3.12;;;;;;;16.76;61.39;101146.85;1763395;79;21120;-75
2022/10/07 08:08:46;;;;;;;11.33;3.40;;;;;;;16.86;61.04;101144.33;1774203;79;21050;-77
2022/10/07 08:11:18;;;;;;;7.30;2.62;;;;;;;16.97;60.65;101143.59;1771384;80;21513;-75
2022/10/07 08:13:45;;;;;;;9.75;3.15;;;;;;;17.06;60.22;101144.72;1765984;79;21093;-75
2022/10/07 08:16:20;;;;;;;6.70;3.10;;;;;;;17.16;60.22;101145.83;1741160;80;21447;-78
2022/10/07 08:18:50;;;;;;;8.75;3.25;;;;;;;17.31;59.37;101148.61;1755968;80;21002;-76
2022/10/07 08:21:20;;;;;;;9.55;3.77;;;;;;;17.42;59.41;101145.52;1777632;80;21030;-75
2022/10/07 08:23:57;;;;;;;7.15;3.20;;;;;;;17.57;59.15;101150.09;1760318;79;21162;-74
2022/10/07 08:26:30;;;;;;;11.43;3.50;;;;;;;17.71;58.88;101149.30;1753055;81;21014;-76
2022/10/07 08:28:58;;;;;;;10.48;3.58;;;;;;;17.87;58.42;101146.52;1747685;80;21858;-77
2022/10/07 08:31:28;;;;;;;13.00;4.65;;;;;;;18.02;58.67;101147.90;1764481;80;20955;-77
2022/10/07 08:33:58;;;;;;;15.30;4.10;;;;;;;18.17;58.22;101149.24;1766966;80;21097;-77
2022/10/07 08:36:26;;;;;;;5.42;2.95;;;;;;;18.34;58.25;101147.74;1760603;80;21010;-77
2022/10/07 08:38:53;;;;;;;5.97;2.98;;;;;;;18.52;57.45;101145.50;1763152;80;21013;-76
2022/10/07 08:41:31;;;;;;;8.70;3.08;;;;;;;18.70;55.97;101145.14;1747004;80;21143;-78
2022/10/07 08:43:57;;;;;;;7.92;2.95;;;;;;;18.85;54.79;101139.25;1757851;80;21045;-77
2022/10/07 08:46:28;;;;;;;5.90;2.80;;;;;;;18.90;54.25;101139.19;1767914;80;21537;-76
2022/10/07 08:48:58;;;;;;;6.33;2.85;;;;;;;19.03;54.32;101145.56;1753313;80;21570;-76
2022/10/07 08:51:47;;;;;;;8.65;3.45;;;;;;;19.31;54.89;101139.43;1766703;80;21062;-75
2022/10/07 08:54:21;;;;;;;5.65;3.15;;;;;;;19.80;54.72;101147.30;1768017;80;21056;-76
2022/10/07 08:56:47;;;;;;;9.50;4.53;;;;;;;20.40;53.61;101147.72;1760604;81;21087;-74
2022/10/07 08:59:28;;;;;;;7.50;3.62;;;;;;;20.90;53.20;101138.95;1773288;79;21033;-75
2022/10/07 09:02:22;;;;;;;12.25;3.40;;;;;;;21.37;52.56;101135.84;1780171;80;21080;-76
2022/10/07 09:05:21;;;;;;;5.67;2.90;;;;;;;21.96;50.88;101137.45;1697572;81;21639;-71
2022/10/07 09:07:53;;;;;;;6.10;2.47;;;;;;;22.44;48.91;101135.00;1771496;79;21239;-74
2022/10/07 09:10:43;;;;;;;5.67;3.15;;;;;;;23.14;46.56;101131.08;1766400;79;21037;-74
2022/10/07 09:13:22;;;;;;;5.58;2.67;;;;;;;23.52;45.03;101125.61;1778436;79;21040;-73
2022/10/07 09:16:10;;;;;;;4.95;2.75;;;;;;;23.70;44.51;101114.01;1782810;78;21099;-75
2022/10/07 09:18:44;;;;;;;7.08;2.90;;;;;;;24.11;43.94;101112.60;1797046;79;21067;-74
2022/10/07 09:21:17;;;;;;;6.20;3.58;;;;;;;24.49;43.68;101117.51;1763764;79;21615;-75
2022/10/07 09:23:44;;;;;;;5.53;3.30;;;;;;;25.05;43.23;101119.14;1798668;78;21567;-75
2022/10/07 09:26:17;;;;;;;5.83;3.02;;;;;;;25.66;42.44;101113.08;1772520;80;21041;-74
2022/10/07 09:28:44;;;;;;;8.43;2.85;;;;;;;26.17;41.82;101114.00;1757235;80;20989;-75
2022/10/07 09:31:13;;;;;;;4.42;2.92;;;;;;;26.72;40.43;101115.47;1783804;78;21132;-74
2022/10/07 09:33:45;;;;;;;5.53;2.83;;;;;;;27.22;39.83;101110.12;1789041;79;21766;-73
2022/10/07 09:36:17;;;;;;;8.23;2.50;;;;;;;27.81;38.64;101104.28;1771996;80;21164;-72
2022/10/07 09:38:47;;;;;;;4.67;2.95;;;;;;;28.38;37.08;101107.84;1780894;79;21529;-74
2022/10/07 09:41:34;;;;;;;8.00;3.95;;;;;;;28.79;36.36;101105.63;1764358;79;21052;-74
2022/10/07 09:44:07;;;;;;;4.70;3.10;;;;;;;29.31;35.80;101106.98;1768631;80;21124;-75
2022/10/07 09:46:48;;;;;;;7.50;3.85;;;;;;;30.04;35.36;101103.69;1767199;79;21694;-74
2022/10/07 09:49:35;;;;;;;6.42;3.95;;;;;;;30.60;34.05;101104.00;1776304;80;21052;-73
2022/10/07 09:52:19;;;;;;;9.58;3.52;;;;;;;31.04;33.66;101104.95;1773826;79;21041;-76
2022/10/07 09:54:47;;;;;;;5.00;2.60;;;;;;;31.38;32.78;101102.23;1779095;80;20950;-76
2022/10/07 09:57:33;;;;;;;7.40;2.80;;;;;;;31.84;31.89;101091.22;1782386;80;21084;-73
2022/10/07 10:00:17;;;;;;;7.90;3.25;;;;;;;32.30;31.40;101087.80;1776718;79;21195;-76
2022/10/07 10:02:51;;;;;;;5.08;2.58;;;;;;;32.63;31.14;101085.47;1782533;80;21034;-73
2022/10/07 10:05:38;;;;;;;6.55;3.10;;;;;;;32.91;30.50;101081.16;1779121;79;21093;-75
2022/10/07 10:08:19;;;;;;;4.78;2.50;;;;;;;33.10;30.59;101075.00;1774763;79;20993;-74
2022/10/07 10:10:51;;;;;;;5.80;2.67;;;;;;;33.52;30.16;101074.11;1756304;80;21528;-75
2022/10/07 10:13:35;;;;;;;5.30;2.98;;;;;;;34.00;29.41;101068.67;1760454;80;21112;-74
2022/10/07 10:16:04;;;;;;;8.58;2.83;;;;;;;34.56;28.95;101067.97;1783832;80;21069;-73
2022/10/07 10:18:39;;;;;;;4.60;3.00;;;;;;;35.03;28.67;101067.55;1779542;79;21044;-72
2022/10/07 10:21:35;;;;;;;4.60;3.15;;;;;;;35.30;28.10;101069.36;1779047;80;21014;-72
2022/10/07 10:24:05;;;;;;;4.37;2.77;;;;;;;35.15;27.95;101057.98;1753714;80;21110;-74
2022/10/07 10:27:02;;;;;;;3.65;2.75;;;;;;;34.91;27.74;101061.68;1777501;79;22489;-72
2022/10/07 10:30:04;;;;;;;4.25;2.90;;;;;;;35.02;27.59;101060.40;1764440;79;21548;-73
2022/10/07 10:32:59;;;;;;;4.58;2.47;;;;;;;35.16;27.30;101051.34;1743519;80;21047;-73
2022/10/07 10:35:31;;;;;;;6.35;2.62;;;;;;;35.38;27.03;101045.98;1779823;79;21485;-74
2022/10/07 10:38:24;;;;;;;5.30;2.40;;;;;;;35.13;27.27;101041.70;1777868;79;21073;-74
2022/10/07 10:41:12;;;;;;;4.35;3.12;;;;;;;35.07;27.25;101039.34;1766789;80;22253;-74
2022/10/07 10:44:22;;;;;;;6.25;2.80;;;;;;;35.17;27.33;101039.19;1756267;79;20998;-72
2022/10/07 10:47:01;;;;;;;3.05;2.60;;;;;;;35.35;27.45;101039.71;1775700;79;21025;-73
2022/10/07 10:50:18;;;;;;;3.80;2.85;;;;;;;35.71;27.15;101039.05;1781611;79;21536;-71
2022/10/07 10:52:59;;;;;;;6.15;3.50;;;;;;;35.69;27.01;101033.59;1779951;79;21348;-75
2022/10/07 10:56:00;;;;;;;5.60;2.43;;;;;;;35.38;27.59;101033.56;1772364;80;21135;-74
2022/10/07 10:58:34;;;;;;;3.58;2.35;;;;;;;35.63;26.87;101039.74;1783192;79;21335;-74
2022/10/07 11:01:20;;;;;;;4.90;2.58;;;;;;;36.00;26.77;101027.67;1781884;79;21127;-74
2022/10/07 11:04:31;;;;;;;6.35;2.95;;;;;;;36.66;26.19;101025.99;1768109;79;21062;-72
2022/10/07 11:07:11;;;;;;;4.50;2.75;;;;;;;37.09;25.76;101027.44;1773347;80;21056;-74
2022/10/07 11:09:45;;;;;;;5.10;2.60;;;;;;;37.13;25.55;101019.61;1763010;79;21122;-75
2022/10/07 11:12:32;;;;;;;4.85;2.80;;;;;;;37.28;25.42;101015.63;1769800;79;21020;-75
2022/10/07 11:15:26;;;;;;;3.67;2.85;;;;;;;37.40;25.51;101017.80;1767837;79;21081;-72
2022/10/07 11:17:53;;;;;;;4.92;2.77;;;;;;;37.57;25.44;101014.27;1770035;79;21009;-74
2022/10/07 11:20:34;;;;;;;4.65;2.50;;;;;;;37.65;25.48;101011.31;1761539;79;21093;-77
2022/10/07 11:23:06;;;;;;;4.78;2.87;;;;;;;37.72;25.57;101012.48;1770764;79;22066;-77
2022/10/07 11:25:37;;;;;;;4.45;2.62;;;;;;;37.96;25.48;101005.72;1772064;79;21037;-74
2022/10/07 11:28:16;;;;;;;6.65;3.02;;;;;;;38.08;25.14;101005.92;1765529;79;21042;-79
2022/10/07 11:30:48;;;;;;;5.12;2.90;;;;;;;38.15;25.11;101007.66;1768801;79;21041;-79
2022/10/07 11:33:23;;;;;;;3.98;2.70;;;;;;;38.33;24.98;101002.93;1750296;80;21506;-77
2022/10/07 11:35:55;;;;;;;8.75;4.00;;;;;;;38.53;24.78;101004.84;1762193;79;21935;-76
2022/10/07 11:38:26;;;;;;;5.50;3.20;;;;;;;38.82;24.66;101001.38;1756254;79;21092;-76
2022/10/07 11:41:04;;;;;;;4.42;2.58;;;;;;;39.06;24.26;100998.66;1756809;79;21053;-78
2022/10/07 11:43:46;;;;;;;8.58;3.52;;;;;;;39.39;23.99;101000.28;1761663;79;21026;-79
2022/10/07 11:46:34;;;;;;;4.87;2.92;;;;;;;39.72;23.75;100994.10;1760315;80;22128;-70
2022/10/07 11:49:12;;;;;;;5.28;3.47;;;;;;;40.04;23.55;100999.55;1765378;78;21304;-74
2022/10/07 11:52:10;;;;;;;5.92;2.60;;;;;;;40.05;23.58;100985.89;1759461;80;21065;-74
2022/10/07 11:55:06;;;;;;;5.85;3.20;;;;;;;40.14;23.57;100987.20;1753992;80;21034;-74
2022/10/07 11:57:35;;;;;;;5.47;2.98;;;;;;;40.17;23.44;100986.54;1786199;78;21092;-73
2022/10/07 12:00:08;;;;;;;4.53;3.00;;;;;;;40.25;23.69;100989.83;1775814;78;21088;-73